sensor_id;sensor_type;location;lat;lon;timestamp;temperature;humidity
28374;DHT22;15616;40.148;-102.718;2023-02-01T00:02:08;20.30;46.60
28374;DHT22;15616;40.148;-102.718;2023-02-01T00:04:34;20.30;46.60
28374;DHT22;15616;40.148;-102.718;2023-02-01T00:07:00;20.20;46.60
28374;DHT22;15616;40.148;-102.718;2023-02-01T00:09:26;20.20;46.60
28374;DHT22;15616;40.148;-102.718;2023-02-01T00:11:52;20.20;46.60
28374;DHT22;15616;40.148;-102.718;2023-02-01T00:14:18;20.20;46.60
28374;DHT22;15616;40.148;-102.718;2023-02-01T00:16:44;20.20;46.70
28374;DHT22;15616;40.148;-102.718;2023-02-01T00:19:13;20.20;46.70
28374;DHT22;15616;40.148;-102.718;2023-02-01T00:21:39;20.20;46.80
28374;DHT22;15616;40.148;-102.718;2023-02-01T00:24:06;20.20;46.80
28374;DHT22;15616;40.148;-102.718;2023-02-01T00:26:37;20.20;46.90
28374;DHT22;15616;40.148;-102.718;2023-02-01T00:29:06;20.20;46.90
28374;DHT22;15616;40.148;-102.718;2023-02-01T00:31:32;20.20;46.90
28374;DHT22;15616;40.148;-102.718;2023-02-01T00:33:58;20.20;46.80
28374;DHT22;15616;40.148;-102.718;2023-02-01T00:36:24;20.20;46.80
28374;DHT22;15616;40.148;-102.718;2023-02-01T00:38:50;20.20;46.70
28374;DHT22;15616;40.148;-102.718;2023-02-01T00:41:18;20.20;46.70
28374;DHT22;15616;40.148;-102.718;2023-02-01T00:43:45;20.30;46.70
28374;DHT22;15616;40.148;-102.718;2023-02-01T00:46:12;20.30;46.60
28374;DHT22;15616;40.148;-102.718;2023-02-01T00:48:39;20.30;46.60
28374;DHT22;15616;40.148;-102.718;2023-02-01T00:51:13;20.30;46.50
28374;DHT22;15616;40.148;-102.718;2023-02-01T00:53:39;20.30;46.50
28374;DHT22;15616;40.148;-102.718;2023-02-01T00:56:06;20.30;46.60
28374;DHT22;15616;40.148;-102.718;2023-02-01T00:58:32;20.20;46.60
28374;DHT22;15616;40.148;-102.718;2023-02-01T01:03:42;20.20;46.70
28374;DHT22;15616;40.148;-102.718;2023-02-01T01:06:12;20.20;46.80
28374;DHT22;15616;40.148;-102.718;2023-02-01T01:08:38;20.20;46.80
28374;DHT22;15616;40.148;-102.718;2023-02-01T01:11:10;20.10;46.70
28374;DHT22;15616;40.148;-102.718;2023-02-01T01:13:36;20.10;46.80
28374;DHT22;15616;40.148;-102.718;2023-02-01T01:16:03;20.10;46.80
28374;DHT22;15616;40.148;-102.718;2023-02-01T01:18:31;20.20;46.90
28374;DHT22;15616;40.148;-102.718;2023-02-01T01:20:57;20.20;46.80
28374;DHT22;15616;40.148;-102.718;2023-02-01T01:23:23;20.20;46.80
28374;DHT22;15616;40.148;-102.718;2023-02-01T01:25:49;20.20;46.70
28374;DHT22;15616;40.148;-102.718;2023-02-01T01:28:15;20.20;46.70
28374;DHT22;15616;40.148;-102.718;2023-02-01T01:30:41;20.20;46.60
28374;DHT22;15616;40.148;-102.718;2023-02-01T01:33:07;20.20;46.60
28374;DHT22;15616;40.148;-102.718;2023-02-01T01:35:33;20.20;46.60
28374;DHT22;15616;40.148;-102.718;2023-02-01T01:38:00;20.20;46.60
28374;DHT22;15616;40.148;-102.718;2023-02-01T01:40:29;20.20;46.60
28374;DHT22;15616;40.148;-102.718;2023-02-01T01:42:55;20.20;46.60
28374;DHT22;15616;40.148;-102.718;2023-02-01T01:45:30;20.20;46.70
28374;DHT22;15616;40.148;-102.718;2023-02-01T01:48:02;20.10;46.70
28374;DHT22;15616;40.148;-102.718;2023-02-01T01:50:40;20.10;46.80
28374;DHT22;15616;40.148;-102.718;2023-02-01T01:53:11;20.10;46.80
28374;DHT22;15616;40.148;-102.718;2023-02-01T01:55:40;20.10;46.90
28374;DHT22;15616;40.148;-102.718;2023-02-01T01:58:12;20.10;46.90
28374;DHT22;15616;40.148;-102.718;2023-02-01T02:00:40;20.10;46.90
28374;DHT22;15616;40.148;-102.718;2023-02-01T02:03:17;20.10;46.90
28374;DHT22;15616;40.148;-102.718;2023-02-01T02:05:45;20.20;46.90
28374;DHT22;15616;40.148;-102.718;2023-02-01T02:08:11;20.20;46.90
28374;DHT22;15616;40.148;-102.718;2023-02-01T02:10:37;20.20;46.80
28374;DHT22;15616;40.148;-102.718;2023-02-01T02:13:22;20.20;46.70
28374;DHT22;15616;40.148;-102.718;2023-02-01T02:18:57;20.20;46.60
28374;DHT22;15616;40.148;-102.718;2023-02-01T02:30:36;20.10;46.70
28374;DHT22;15616;40.148;-102.718;2023-02-01T02:35:56;20.10;46.80
28374;DHT22;15616;40.148;-102.718;2023-02-01T02:41:48;20.10;46.80
28374;DHT22;15616;40.148;-102.718;2023-02-01T02:44:24;20.10;46.80
28374;DHT22;15616;40.148;-102.718;2023-02-01T02:47:21;20.10;46.90
28374;DHT22;15616;40.148;-102.718;2023-02-01T02:50:10;20.10;46.90
28374;DHT22;15616;40.148;-102.718;2023-02-01T02:53:11;20.20;46.80
28374;DHT22;15616;40.148;-102.718;2023-02-01T02:55:57;20.20;46.80
28374;DHT22;15616;40.148;-102.718;2023-02-01T02:58:43;20.20;46.70
28374;DHT22;15616;40.148;-102.718;2023-02-01T03:01:31;20.20;46.70
28374;DHT22;15616;40.148;-102.718;2023-02-01T03:04:16;20.20;46.70
28374;DHT22;15616;40.148;-102.718;2023-02-01T03:06:46;20.20;46.70
28374;DHT22;15616;40.148;-102.718;2023-02-01T03:09:26;20.20;46.70
28374;DHT22;15616;40.148;-102.718;2023-02-01T03:11:59;20.20;46.70
28374;DHT22;15616;40.148;-102.718;2023-02-01T03:14:50;20.10;46.70
28374;DHT22;15616;40.148;-102.718;2023-02-01T03:17:22;20.10;46.70
28374;DHT22;15616;40.148;-102.718;2023-02-01T03:19:52;20.10;46.80
28374;DHT22;15616;40.148;-102.718;2023-02-01T03:22:24;20.10;46.80
28374;DHT22;15616;40.148;-102.718;2023-02-01T03:24:58;20.10;46.80
28374;DHT22;15616;40.148;-102.718;2023-02-01T03:27:49;20.20;46.90
28374;DHT22;15616;40.148;-102.718;2023-02-01T03:30:21;20.20;46.80
28374;DHT22;15616;40.148;-102.718;2023-02-01T03:32:50;20.20;46.80
28374;DHT22;15616;40.148;-102.718;2023-02-01T03:35:36;20.20;46.80
28374;DHT22;15616;40.148;-102.718;2023-02-01T03:44:19;20.20;46.60
28374;DHT22;15616;40.148;-102.718;2023-02-01T03:47:08;20.20;46.50
28374;DHT22;15616;40.148;-102.718;2023-02-01T03:49:39;20.20;46.60
28374;DHT22;15616;40.148;-102.718;2023-02-01T03:52:22;20.20;46.70
28374;DHT22;15616;40.148;-102.718;2023-02-01T03:54:51;20.20;46.60
28374;DHT22;15616;40.148;-102.718;2023-02-01T03:57:23;20.20;46.70
28374;DHT22;15616;40.148;-102.718;2023-02-01T03:59:50;20.20;46.60
28374;DHT22;15616;40.148;-102.718;2023-02-01T04:02:16;20.10;46.60
28374;DHT22;15616;40.148;-102.718;2023-02-01T04:04:42;20.10;46.70
28374;DHT22;15616;40.148;-102.718;2023-02-01T04:07:08;20.10;46.70
28374;DHT22;15616;40.148;-102.718;2023-02-01T04:09:34;20.10;46.70
28374;DHT22;15616;40.148;-102.718;2023-02-01T04:12:00;20.10;46.70
28374;DHT22;15616;40.148;-102.718;2023-02-01T04:14:26;20.10;46.70
28374;DHT22;15616;40.148;-102.718;2023-02-01T04:16:52;20.20;46.80
28374;DHT22;15616;40.148;-102.718;2023-02-01T04:19:18;20.20;46.70
28374;DHT22;15616;40.148;-102.718;2023-02-01T04:21:44;20.20;46.70
28374;DHT22;15616;40.148;-102.718;2023-02-01T04:24:10;20.20;46.60
28374;DHT22;15616;40.148;-102.718;2023-02-01T04:26:36;20.20;46.60
28374;DHT22;15616;40.148;-102.718;2023-02-01T04:29:02;20.20;46.60
28374;DHT22;15616;40.148;-102.718;2023-02-01T04:31:28;20.20;46.50
28374;DHT22;15616;40.148;-102.718;2023-02-01T04:33:55;20.20;46.60
28374;DHT22;15616;40.148;-102.718;2023-02-01T04:36:23;20.20;46.60
28374;DHT22;15616;40.148;-102.718;2023-02-01T04:38:52;20.20;46.60
28374;DHT22;15616;40.148;-102.718;2023-02-01T04:41:19;20.20;46.60
28374;DHT22;15616;40.148;-102.718;2023-02-01T04:43:48;20.10;47.30
28374;DHT22;15616;40.148;-102.718;2023-02-01T04:46:15;20.10;46.60
28374;DHT22;15616;40.148;-102.718;2023-02-01T04:48:41;20.10;46.70
28374;DHT22;15616;40.148;-102.718;2023-02-01T04:51:08;20.10;46.70
28374;DHT22;15616;40.148;-102.718;2023-02-01T04:53:34;20.10;46.70
28374;DHT22;15616;40.148;-102.718;2023-02-01T04:56:00;20.10;46.80
28374;DHT22;15616;40.148;-102.718;2023-02-01T04:58:26;20.10;46.80
28374;DHT22;15616;40.148;-102.718;2023-02-01T05:00:51;20.10;46.80
28374;DHT22;15616;40.148;-102.718;2023-02-01T05:03:18;20.10;46.80
28374;DHT22;15616;40.148;-102.718;2023-02-01T05:05:44;20.10;46.80
28374;DHT22;15616;40.148;-102.718;2023-02-01T05:08:10;20.10;46.70
28374;DHT22;15616;40.148;-102.718;2023-02-01T05:10:36;20.10;46.70
28374;DHT22;15616;40.148;-102.718;2023-02-01T05:13:01;20.10;46.60
28374;DHT22;15616;40.148;-102.718;2023-02-01T05:15:46;20.10;46.60
28374;DHT22;15616;40.148;-102.718;2023-02-01T05:18:12;20.10;46.60
28374;DHT22;15616;40.148;-102.718;2023-02-01T05:20:38;20.10;46.60
28374;DHT22;15616;40.148;-102.718;2023-02-01T05:23:04;20.00;46.60
28374;DHT22;15616;40.148;-102.718;2023-02-01T05:25:31;20.00;46.60
28374;DHT22;15616;40.148;-102.718;2023-02-01T05:27:57;20.00;46.70
28374;DHT22;15616;40.148;-102.718;2023-02-01T05:30:23;20.00;46.70
28374;DHT22;15616;40.148;-102.718;2023-02-01T05:32:52;20.00;46.70
28374;DHT22;15616;40.148;-102.718;2023-02-01T05:35:19;20.10;46.60
28374;DHT22;15616;40.148;-102.718;2023-02-01T05:37:45;20.10;46.50
28374;DHT22;15616;40.148;-102.718;2023-02-01T05:40:11;20.10;46.40
28374;DHT22;15616;40.148;-102.718;2023-02-01T05:42:37;20.10;46.20
28374;DHT22;15616;40.148;-102.718;2023-02-01T05:45:04;20.20;46.20
28374;DHT22;15616;40.148;-102.718;2023-02-01T05:47:31;20.20;46.10
28374;DHT22;15616;40.148;-102.718;2023-02-01T05:49:57;20.20;46.10
28374;DHT22;15616;40.148;-102.718;2023-02-01T05:52:23;20.20;46.10
28374;DHT22;15616;40.148;-102.718;2023-02-01T05:54:49;20.30;46.10
28374;DHT22;15616;40.148;-102.718;2023-02-01T05:57:15;20.30;46.00
28374;DHT22;15616;40.148;-102.718;2023-02-01T05:59:41;20.30;46.00
28374;DHT22;15616;40.148;-102.718;2023-02-01T06:02:11;20.30;46.00
28374;DHT22;15616;40.148;-102.718;2023-02-01T06:04:37;20.30;46.00
28374;DHT22;15616;40.148;-102.718;2023-02-01T06:07:05;20.30;46.00
28374;DHT22;15616;40.148;-102.718;2023-02-01T06:09:34;20.30;46.70
28374;DHT22;15616;40.148;-102.718;2023-02-01T06:12:00;20.30;46.00
28374;DHT22;15616;40.148;-102.718;2023-02-01T06:14:27;20.30;46.00
28374;DHT22;15616;40.148;-102.718;2023-02-01T06:16:54;20.30;46.10
28374;DHT22;15616;40.148;-102.718;2023-02-01T06:19:20;20.30;46.10
28374;DHT22;15616;40.148;-102.718;2023-02-01T06:21:46;20.30;46.00
28374;DHT22;15616;40.148;-102.718;2023-02-01T06:24:13;20.30;46.00
28374;DHT22;15616;40.148;-102.718;2023-02-01T06:26:39;20.30;45.90
28374;DHT22;15616;40.148;-102.718;2023-02-01T06:29:06;20.40;46.00
28374;DHT22;15616;40.148;-102.718;2023-02-01T06:31:33;20.40;45.80
28374;DHT22;15616;40.148;-102.718;2023-02-01T06:33:59;20.40;45.80
28374;DHT22;15616;40.148;-102.718;2023-02-01T06:36:25;20.40;45.90
28374;DHT22;15616;40.148;-102.718;2023-02-01T06:38:50;20.40;45.80
28374;DHT22;15616;40.148;-102.718;2023-02-01T06:41:17;20.40;45.80
28374;DHT22;15616;40.148;-102.718;2023-02-01T06:43:42;20.40;45.90
28374;DHT22;15616;40.148;-102.718;2023-02-01T06:46:11;20.40;45.90
28374;DHT22;15616;40.148;-102.718;2023-02-01T06:48:38;20.30;45.90
28374;DHT22;15616;40.148;-102.718;2023-02-01T06:51:04;20.30;45.90
28374;DHT22;15616;40.148;-102.718;2023-02-01T06:53:30;20.30;46.00
28374;DHT22;15616;40.148;-102.718;2023-02-01T06:56:02;20.30;46.00
28374;DHT22;15616;40.148;-102.718;2023-02-01T06:58:32;20.30;46.00
28374;DHT22;15616;40.148;-102.718;2023-02-01T07:01:07;20.30;46.00
28374;DHT22;15616;40.148;-102.718;2023-02-01T07:03:34;20.30;46.00
28374;DHT22;15616;40.148;-102.718;2023-02-01T07:06:00;20.30;46.00
28374;DHT22;15616;40.148;-102.718;2023-02-01T07:08:29;20.30;46.00
28374;DHT22;15616;40.148;-102.718;2023-02-01T07:10:56;20.40;46.00
28374;DHT22;15616;40.148;-102.718;2023-02-01T07:13:22;20.40;45.90
28374;DHT22;15616;40.148;-102.718;2023-02-01T07:15:48;20.40;45.80
28374;DHT22;15616;40.148;-102.718;2023-02-01T07:18:15;20.40;45.80
28374;DHT22;15616;40.148;-102.718;2023-02-01T07:20:41;20.40;45.80
28374;DHT22;15616;40.148;-102.718;2023-02-01T07:23:09;20.40;45.80
28374;DHT22;15616;40.148;-102.718;2023-02-01T07:25:36;20.40;45.80
28374;DHT22;15616;40.148;-102.718;2023-02-01T07:28:02;20.40;45.80
28374;DHT22;15616;40.148;-102.718;2023-02-01T07:30:28;20.40;45.90
28374;DHT22;15616;40.148;-102.718;2023-02-01T07:32:54;20.40;45.80
28374;DHT22;15616;40.148;-102.718;2023-02-01T07:35:20;20.40;45.80
28374;DHT22;15616;40.148;-102.718;2023-02-01T07:37:46;20.40;45.80
28374;DHT22;15616;40.148;-102.718;2023-02-01T07:40:12;20.30;45.80
28374;DHT22;15616;40.148;-102.718;2023-02-01T07:42:38;20.40;46.50
28374;DHT22;15616;40.148;-102.718;2023-02-01T07:45:04;20.40;45.80
28374;DHT22;15616;40.148;-102.718;2023-02-01T07:47:31;20.40;45.80
28374;DHT22;15616;40.148;-102.718;2023-02-01T07:49:57;20.40;45.80
28374;DHT22;15616;40.148;-102.718;2023-02-01T07:52:23;20.40;45.70
28374;DHT22;15616;40.148;-102.718;2023-02-01T07:54:49;20.40;45.70
28374;DHT22;15616;40.148;-102.718;2023-02-01T07:57:15;20.40;45.70
28374;DHT22;15616;40.148;-102.718;2023-02-01T07:59:40;20.40;45.80
28374;DHT22;15616;40.148;-102.718;2023-02-01T08:02:26;20.40;45.80
28374;DHT22;15616;40.148;-102.718;2023-02-01T08:04:52;20.40;45.80
28374;DHT22;15616;40.148;-102.718;2023-02-01T08:07:18;20.40;45.80
28374;DHT22;15616;40.148;-102.718;2023-02-01T08:09:44;20.40;45.80
28374;DHT22;15616;40.148;-102.718;2023-02-01T08:12:10;20.40;45.70
28374;DHT22;15616;40.148;-102.718;2023-02-01T08:14:36;20.40;46.30
28374;DHT22;15616;40.148;-102.718;2023-02-01T08:17:02;20.50;45.60
28374;DHT22;15616;40.148;-102.718;2023-02-01T08:19:28;20.50;45.50
28374;DHT22;15616;40.148;-102.718;2023-02-01T08:21:54;20.50;45.30
28374;DHT22;15616;40.148;-102.718;2023-02-01T08:24:20;20.50;45.20
28374;DHT22;15616;40.148;-102.718;2023-02-01T08:26:47;20.50;45.20
28374;DHT22;15616;40.148;-102.718;2023-02-01T08:29:13;20.50;45.00
28374;DHT22;15616;40.148;-102.718;2023-02-01T08:31:39;20.50;45.00
28374;DHT22;15616;40.148;-102.718;2023-02-01T08:34:09;20.50;45.00
28374;DHT22;15616;40.148;-102.718;2023-02-01T08:36:35;20.50;45.10
28374;DHT22;15616;40.148;-102.718;2023-02-01T08:39:03;20.50;45.20
28374;DHT22;15616;40.148;-102.718;2023-02-01T08:41:34;20.50;45.20
28374;DHT22;15616;40.148;-102.718;2023-02-01T08:44:00;20.50;45.10
28374;DHT22;15616;40.148;-102.718;2023-02-01T08:46:27;20.50;45.10
28374;DHT22;15616;40.148;-102.718;2023-02-01T08:48:53;20.40;45.00
28374;DHT22;15616;40.148;-102.718;2023-02-01T08:51:20;20.50;45.10
28374;DHT22;15616;40.148;-102.718;2023-02-01T08:53:47;20.50;45.10
28374;DHT22;15616;40.148;-102.718;2023-02-01T08:56:14;20.50;45.10
28374;DHT22;15616;40.148;-102.718;2023-02-01T08:58:41;20.60;45.10
28374;DHT22;15616;40.148;-102.718;2023-02-01T09:01:09;20.60;44.90
28374;DHT22;15616;40.148;-102.718;2023-02-01T09:03:36;20.60;44.70
28374;DHT22;15616;40.148;-102.718;2023-02-01T09:06:07;20.60;44.60
28374;DHT22;15616;40.148;-102.718;2023-02-01T09:08:34;20.60;44.50
28374;DHT22;15616;40.148;-102.718;2023-02-01T09:11:02;20.60;44.50
28374;DHT22;15616;40.148;-102.718;2023-02-01T09:13:28;20.60;44.60
28374;DHT22;15616;40.148;-102.718;2023-02-01T09:15:54;20.60;44.50
28374;DHT22;15616;40.148;-102.718;2023-02-01T09:18:21;20.60;44.50
28374;DHT22;15616;40.148;-102.718;2023-02-01T09:20:47;20.60;44.60
28374;DHT22;15616;40.148;-102.718;2023-02-01T09:23:13;20.60;44.70
28374;DHT22;15616;40.148;-102.718;2023-02-01T09:25:39;20.60;44.70
28374;DHT22;15616;40.148;-102.718;2023-02-01T09:28:05;20.50;44.70
28374;DHT22;15616;40.148;-102.718;2023-02-01T09:30:32;20.60;44.70
28374;DHT22;15616;40.148;-102.718;2023-02-01T09:32:58;20.60;44.70
28374;DHT22;15616;40.148;-102.718;2023-02-01T09:35:24;20.60;44.70
28374;DHT22;15616;40.148;-102.718;2023-02-01T09:37:52;20.60;44.70
28374;DHT22;15616;40.148;-102.718;2023-02-01T09:40:19;20.60;44.70
28374;DHT22;15616;40.148;-102.718;2023-02-01T09:45:55;20.60;44.60
28374;DHT22;15616;40.148;-102.718;2023-02-01T09:48:31;20.60;44.60
28374;DHT22;15616;40.148;-102.718;2023-02-01T09:50:59;20.60;44.60
28374;DHT22;15616;40.148;-102.718;2023-02-01T09:53:59;20.60;44.50
28374;DHT22;15616;40.148;-102.718;2023-02-01T09:57:17;20.60;44.40
28374;DHT22;15616;40.148;-102.718;2023-02-01T09:59:39;20.60;44.50
28374;DHT22;15616;40.148;-102.718;2023-02-01T10:02:16;20.60;44.50
28374;DHT22;15616;40.148;-102.718;2023-02-01T10:04:44;20.60;44.60
28374;DHT22;15616;40.148;-102.718;2023-02-01T10:07:16;20.60;44.60
28374;DHT22;15616;40.148;-102.718;2023-02-01T10:20:20;20.50;44.70
28374;DHT22;15616;40.148;-102.718;2023-02-01T10:25:54;20.60;44.70
28374;DHT22;15616;40.148;-102.718;2023-02-01T10:28:20;20.60;44.80
28374;DHT22;15616;40.148;-102.718;2023-02-01T10:30:48;20.50;44.70
28374;DHT22;15616;40.148;-102.718;2023-02-01T10:33:18;20.60;44.70
28374;DHT22;15616;40.148;-102.718;2023-02-01T10:35:45;20.60;44.60
28374;DHT22;15616;40.148;-102.718;2023-02-01T10:38:23;20.60;45.30
28374;DHT22;15616;40.148;-102.718;2023-02-01T10:40:52;20.60;44.70
28374;DHT22;15616;40.148;-102.718;2023-02-01T10:43:20;20.60;44.60
28374;DHT22;15616;40.148;-102.718;2023-02-01T10:45:46;20.60;44.50
28374;DHT22;15616;40.148;-102.718;2023-02-01T10:48:12;20.60;44.40
28374;DHT22;15616;40.148;-102.718;2023-02-01T10:53:25;20.70;44.50
28374;DHT22;15616;40.148;-102.718;2023-02-01T10:55:55;20.60;44.50
28374;DHT22;15616;40.148;-102.718;2023-02-01T10:58:30;20.60;44.60
28374;DHT22;15616;40.148;-102.718;2023-02-01T11:01:04;20.60;44.60
28374;DHT22;15616;40.148;-102.718;2023-02-01T11:03:36;20.60;44.60
28374;DHT22;15616;40.148;-102.718;2023-02-01T11:06:10;20.60;44.50
28374;DHT22;15616;40.148;-102.718;2023-02-01T11:08:46;20.60;44.50
28374;DHT22;15616;40.148;-102.718;2023-02-01T11:11:13;20.60;44.50
28374;DHT22;15616;40.148;-102.718;2023-02-01T11:13:40;20.60;44.60
28374;DHT22;15616;40.148;-102.718;2023-02-01T11:16:13;20.60;44.70
28374;DHT22;15616;40.148;-102.718;2023-02-01T11:18:40;20.60;44.70
28374;DHT22;15616;40.148;-102.718;2023-02-01T11:21:08;20.60;44.70
28374;DHT22;15616;40.148;-102.718;2023-02-01T11:23:40;20.60;44.70
28374;DHT22;15616;40.148;-102.718;2023-02-01T11:26:14;20.60;44.70
28374;DHT22;15616;40.148;-102.718;2023-02-01T11:28:50;20.60;44.70
28374;DHT22;15616;40.148;-102.718;2023-02-01T11:31:18;20.60;45.30
28374;DHT22;15616;40.148;-102.718;2023-02-01T11:33:52;20.60;44.60
28374;DHT22;15616;40.148;-102.718;2023-02-01T11:36:23;20.60;44.60
28374;DHT22;15616;40.148;-102.718;2023-02-01T11:39:29;20.60;44.50
28374;DHT22;15616;40.148;-102.718;2023-02-01T11:42:03;20.60;44.40
28374;DHT22;15616;40.148;-102.718;2023-02-01T11:44:37;20.60;44.40
28374;DHT22;15616;40.148;-102.718;2023-02-01T11:47:20;20.60;44.40
28374;DHT22;15616;40.148;-102.718;2023-02-01T11:49:48;20.60;44.40
28374;DHT22;15616;40.148;-102.718;2023-02-01T11:52:43;20.60;44.50
28374;DHT22;15616;40.148;-102.718;2023-02-01T11:55:29;20.60;44.50
28374;DHT22;15616;40.148;-102.718;2023-02-01T11:58:24;20.60;44.50
28374;DHT22;15616;40.148;-102.718;2023-02-01T12:06:50;20.60;44.50
28374;DHT22;15616;40.148;-102.718;2023-02-01T12:17:39;20.60;44.70
28374;DHT22;15616;40.148;-102.718;2023-02-01T12:20:34;20.60;44.60
28374;DHT22;15616;40.148;-102.718;2023-02-01T12:23:10;20.60;44.60
28374;DHT22;15616;40.148;-102.718;2023-02-01T12:38:08;20.60;44.60
28374;DHT22;15616;40.148;-102.718;2023-02-01T12:45:56;20.60;44.70
28374;DHT22;15616;40.148;-102.718;2023-02-01T12:49:05;20.60;44.60
28374;DHT22;15616;40.148;-102.718;2023-02-01T12:51:26;20.60;44.60
28374;DHT22;15616;40.148;-102.718;2023-02-01T12:53:57;20.60;44.60
28374;DHT22;15616;40.148;-102.718;2023-02-01T12:56:46;20.60;44.50
28374;DHT22;15616;40.148;-102.718;2023-02-01T13:01:53;20.70;44.60
28374;DHT22;15616;40.148;-102.718;2023-02-01T13:04:36;20.70;44.60
28374;DHT22;15616;40.148;-102.718;2023-02-01T13:07:07;20.70;44.60
28374;DHT22;15616;40.148;-102.718;2023-02-01T13:10:00;20.60;44.50
28374;DHT22;15616;40.148;-102.718;2023-02-01T13:13:10;20.70;44.50
28374;DHT22;15616;40.148;-102.718;2023-02-01T13:15:48;20.70;44.60
28374;DHT22;15616;40.148;-102.718;2023-02-01T13:18:19;20.70;44.70
28374;DHT22;15616;40.148;-102.718;2023-02-01T13:21:01;20.60;44.60
28374;DHT22;15616;40.148;-102.718;2023-02-01T13:23:35;20.70;44.70
28374;DHT22;15616;40.148;-102.718;2023-02-01T13:26:02;20.70;44.70
28374;DHT22;15616;40.148;-102.718;2023-02-01T13:31:48;20.70;44.60
28374;DHT22;15616;40.148;-102.718;2023-02-01T13:34:46;20.70;44.60
28374;DHT22;15616;40.148;-102.718;2023-02-01T13:37:23;20.70;44.60
28374;DHT22;15616;40.148;-102.718;2023-02-01T13:43:02;20.70;44.70
28374;DHT22;15616;40.148;-102.718;2023-02-01T13:45:33;20.70;44.80
28374;DHT22;15616;40.148;-102.718;2023-02-01T13:48:04;20.60;44.80
28374;DHT22;15616;40.148;-102.718;2023-02-01T13:50:34;20.70;44.80
28374;DHT22;15616;40.148;-102.718;2023-02-01T13:53:04;20.70;44.70
28374;DHT22;15616;40.148;-102.718;2023-02-01T13:56:05;20.70;44.60
28374;DHT22;15616;40.148;-102.718;2023-02-01T13:58:38;20.70;44.60
28374;DHT22;15616;40.148;-102.718;2023-02-01T14:04:00;20.70;44.60
28374;DHT22;15616;40.148;-102.718;2023-02-01T14:21:53;20.70;44.60
28374;DHT22;15616;40.148;-102.718;2023-02-01T14:24:27;20.70;44.70
28374;DHT22;15616;40.148;-102.718;2023-02-01T14:27:23;20.70;44.70
28374;DHT22;15616;40.148;-102.718;2023-02-01T14:29:58;20.70;44.80
28374;DHT22;15616;40.148;-102.718;2023-02-01T14:32:34;20.70;44.80
28374;DHT22;15616;40.148;-102.718;2023-02-01T14:35:06;20.70;44.70
28374;DHT22;15616;40.148;-102.718;2023-02-01T14:37:35;20.70;44.80
28374;DHT22;15616;40.148;-102.718;2023-02-01T14:40:24;20.70;44.70
28374;DHT22;15616;40.148;-102.718;2023-02-01T14:42:51;20.70;44.80
28374;DHT22;15616;40.148;-102.718;2023-02-01T14:53:12;20.70;44.90
28374;DHT22;15616;40.148;-102.718;2023-02-01T14:58:31;20.60;45.00
28374;DHT22;15616;40.148;-102.718;2023-02-01T15:01:04;20.70;45.00
28374;DHT22;15616;40.148;-102.718;2023-02-01T15:06:56;20.60;45.60
28374;DHT22;15616;40.148;-102.718;2023-02-01T15:09:37;20.70;45.00
28374;DHT22;15616;40.148;-102.718;2023-02-01T15:15:23;20.70;45.00
28374;DHT22;15616;40.148;-102.718;2023-02-01T15:17:51;20.70;45.00
28374;DHT22;15616;40.148;-102.718;2023-02-01T15:20:31;20.60;45.00
28374;DHT22;15616;40.148;-102.718;2023-02-01T15:23:00;20.70;45.00
28374;DHT22;15616;40.148;-102.718;2023-02-01T15:25:33;20.70;45.00
28374;DHT22;15616;40.148;-102.718;2023-02-01T15:28:00;20.60;44.90
28374;DHT22;15616;40.148;-102.718;2023-02-01T15:30:30;20.60;45.00
28374;DHT22;15616;40.148;-102.718;2023-02-01T15:35:42;20.70;45.00
28374;DHT22;15616;40.148;-102.718;2023-02-01T15:43:24;20.70;45.00
28374;DHT22;15616;40.148;-102.718;2023-02-01T15:45:51;20.60;45.00
28374;DHT22;15616;40.148;-102.718;2023-02-01T15:48:23;20.60;45.00
28374;DHT22;15616;40.148;-102.718;2023-02-01T15:50:51;20.60;45.00
28374;DHT22;15616;40.148;-102.718;2023-02-01T15:53:24;20.60;45.00
28374;DHT22;15616;40.148;-102.718;2023-02-01T15:55:55;20.60;44.90
28374;DHT22;15616;40.148;-102.718;2023-02-01T15:58:23;20.70;45.00
28374;DHT22;15616;40.148;-102.718;2023-02-01T16:00:52;20.60;44.90
28374;DHT22;15616;40.148;-102.718;2023-02-01T16:03:40;20.60;44.90
28374;DHT22;15616;40.148;-102.718;2023-02-01T16:06:12;20.60;44.90
28374;DHT22;15616;40.148;-102.718;2023-02-01T16:08:55;20.60;45.00
28374;DHT22;15616;40.148;-102.718;2023-02-01T16:11:31;20.60;45.00
28374;DHT22;15616;40.148;-102.718;2023-02-01T16:13:58;20.60;45.00
28374;DHT22;15616;40.148;-102.718;2023-02-01T16:16:27;20.60;45.00
28374;DHT22;15616;40.148;-102.718;2023-02-01T16:18:53;20.60;45.00
28374;DHT22;15616;40.148;-102.718;2023-02-01T16:21:19;20.60;45.00
28374;DHT22;15616;40.148;-102.718;2023-02-01T16:23:52;20.60;45.00
28374;DHT22;15616;40.148;-102.718;2023-02-01T16:26:19;20.60;45.00
28374;DHT22;15616;40.148;-102.718;2023-02-01T16:28:45;20.60;45.00
28374;DHT22;15616;40.148;-102.718;2023-02-01T16:31:14;20.60;45.10
28374;DHT22;15616;40.148;-102.718;2023-02-01T16:33:50;20.60;45.10
28374;DHT22;15616;40.148;-102.718;2023-02-01T16:36:17;20.60;45.10
28374;DHT22;15616;40.148;-102.718;2023-02-01T16:38:43;20.60;45.10
28374;DHT22;15616;40.148;-102.718;2023-02-01T16:41:19;20.60;45.10
28374;DHT22;15616;40.148;-102.718;2023-02-01T16:43:45;20.60;45.00
28374;DHT22;15616;40.148;-102.718;2023-02-01T16:46:16;20.60;45.00
28374;DHT22;15616;40.148;-102.718;2023-02-01T16:48:48;20.60;45.10
28374;DHT22;15616;40.148;-102.718;2023-02-01T16:51:16;20.60;45.00
28374;DHT22;15616;40.148;-102.718;2023-02-01T16:53:43;20.60;45.10
28374;DHT22;15616;40.148;-102.718;2023-02-01T16:56:21;20.50;45.10
28374;DHT22;15616;40.148;-102.718;2023-02-01T16:58:48;20.60;45.10
28374;DHT22;15616;40.148;-102.718;2023-02-01T17:01:16;20.50;45.10
28374;DHT22;15616;40.148;-102.718;2023-02-01T17:03:44;20.50;45.10
28374;DHT22;15616;40.148;-102.718;2023-02-01T17:06:13;20.60;45.10
28374;DHT22;15616;40.148;-102.718;2023-02-01T17:08:50;20.60;45.10
28374;DHT22;15616;40.148;-102.718;2023-02-01T17:11:17;20.60;45.80
28374;DHT22;15616;40.148;-102.718;2023-02-01T17:13:43;20.50;45.10
28374;DHT22;15616;40.148;-102.718;2023-02-01T17:16:30;20.60;45.20
28374;DHT22;15616;40.148;-102.718;2023-02-01T17:19:20;20.60;45.10
28374;DHT22;15616;40.148;-102.718;2023-02-01T17:21:47;20.60;45.10